地図

経路データ

SID SEASON NUMBER BASIN SUBBASIN NAME ISO_TIME NATURE LAT LON WMO_WIND WMO_PRES WMO_AGENCY TRACK_TYPE DIST2LAND LANDFALL IFLAG USA_AGENCY USA_ATCF_ID USA_LAT USA_LON USA_RECORD USA_STATUS USA_WIND USA_PRES USA_SSHS USA_R34_NE USA_R34_SE USA_R34_SW USA_R34_NW USA_R50_NE USA_R50_SE USA_R50_SW USA_R50_NW USA_R64_NE USA_R64_SE USA_R64_SW USA_R64_NW USA_POCI USA_ROCI USA_RMW USA_EYE TOKYO_LAT TOKYO_LON TOKYO_GRADE TOKYO_WIND TOKYO_PRES TOKYO_R50_DIR TOKYO_R50_LONG TOKYO_R50_SHORT TOKYO_R30_DIR TOKYO_R30_LONG TOKYO_R30_SHORT TOKYO_LAND CMA_LAT CMA_LON CMA_CAT CMA_WIND CMA_PRES HKO_LAT HKO_LON HKO_CAT HKO_WIND HKO_PRES NEWDELHI_LAT NEWDELHI_LON NEWDELHI_GRADE NEWDELHI_WIND NEWDELHI_PRES NEWDELHI_CI NEWDELHI_DP NEWDELHI_POCI REUNION_LAT REUNION_LON REUNION_TYPE REUNION_WIND REUNION_PRES REUNION_TNUM REUNION_CI REUNION_RMW REUNION_R34_NE REUNION_R34_SE REUNION_R34_SW REUNION_R34_NW REUNION_R50_NE REUNION_R50_SE REUNION_R50_SW REUNION_R50_NW REUNION_R64_NE REUNION_R64_SE REUNION_R64_SW REUNION_R64_NW BOM_LAT BOM_LON BOM_TYPE BOM_WIND BOM_PRES BOM_TNUM BOM_CI BOM_RMW BOM_R34_NE BOM_R34_SE BOM_R34_SW BOM_R34_NW BOM_R50_NE BOM_R50_SE BOM_R50_SW BOM_R50_NW BOM_R64_NE BOM_R64_SE BOM_R64_SW BOM_R64_NW BOM_ROCI BOM_POCI BOM_EYE BOM_POS_METHOD BOM_PRES_METHOD NADI_LAT NADI_LON NADI_CAT NADI_WIND NADI_PRES WELLINGTON_LAT WELLINGTON_LON WELLINGTON_WIND WELLINGTON_PRES DS824_LAT DS824_LON DS824_STAGE DS824_WIND DS824_PRES TD9636_LAT TD9636_LON TD9636_STAGE TD9636_WIND TD9636_PRES TD9635_LAT TD9635_LON TD9635_WIND TD9635_PRES TD9635_ROCI NEUMANN_LAT NEUMANN_LON NEUMANN_CLASS NEUMANN_WIND NEUMANN_PRES MLC_LAT MLC_LON MLC_CLASS MLC_WIND MLC_PRES USA_GUST BOM_GUST BOM_GUST_PER REUNION_GUST REUNION_GUST_PER USA_SEAHGT USA_SEARAD_NE USA_SEARAD_SE USA_SEARAD_SW USA_SEARAD_NW STORM_SPEED STORM_DIR
1971223N27280 1971 92 NA NA BETH 1971-08-10 12:00:00 TS 26.7000 -79.9000 20 hurdat_atl main 14 14 O_____________ hurdat_atl AL061971 26.7000 -79.9000 TD 20 -1 5 90
1971223N27280 1971 92 NA NA BETH 1971-08-10 15:00:00 TS 26.6999 -79.6345 main 41 41 P_____________ AL061971 26.6999 -79.6345 TD 20 -1 5 79
1971223N27280 1971 92 NA NA BETH 1971-08-10 18:00:00 TS 26.8000 -79.3000 20 1013 hurdat_atl main 69 69 O_____________ hurdat_atl AL061971 26.8000 -79.3000 TD 20 1013 -1 8 62
1971223N27280 1971 92 NA NA BETH 1971-08-10 21:00:00 TS 27.0628 -78.8706 main 113 113 P_____________ AL061971 27.0628 -78.8706 TD 20 -1 9 50
1971223N27280 1971 92 NA NA BETH 1971-08-11 00:00:00 TS 27.4000 -78.5000 20 hurdat_atl main 162 162 O_____________ hurdat_atl AL061971 27.4000 -78.5000 TD 20 -1 8 36
1971223N27280 1971 92 NA NA BETH 1971-08-11 03:00:00 TS 27.6848 -78.3546 main 185 185 P_____________ AL061971 27.6848 -78.3546 TD 22 -1 6 16
1971223N27280 1971 92 NA NA BETH 1971-08-11 06:00:00 TS 28.0000 -78.3000 25 hurdat_atl main 207 207 O_____________ hurdat_atl AL061971 28.0000 -78.3000 TD 25 -1 7 10
1971223N27280 1971 92 NA NA BETH 1971-08-11 09:00:00 TS 28.3775 -78.2148 main 224 224 P_____________ AL061971 28.3775 -78.2148 TD 25 -1 8 13
1971223N27280 1971 92 NA NA BETH 1971-08-11 12:00:00 TS 28.8000 -78.1000 25 hurdat_atl main 236 236 O_____________ hurdat_atl AL061971 28.8000 -78.1000 TD 25 -1 9 17
1971223N27280 1971 92 NA NA BETH 1971-08-11 15:00:00 TS 29.2350 -77.9224 main 264 264 P_____________ AL061971 29.2350 -77.9224 TD 27 -1 10 21
1971223N27280 1971 92 NA NA BETH 1971-08-11 18:00:00 TS 29.7000 -77.7000 30 1010 hurdat_atl main 302 302 O_____________ hurdat_atl AL061971 29.7000 -77.7000 TD 30 1010 -1 11 23
1971223N27280 1971 92 NA NA BETH 1971-08-11 21:00:00 TS 30.2075 -77.4575 main 346 329 P_____________ AL061971 30.2075 -77.4575 TD 30 -1 11 23
1971223N27280 1971 92 NA NA BETH 1971-08-12 00:00:00 TS 30.7000 -77.2000 30 hurdat_atl main 329 309 O_____________ hurdat_atl AL061971 30.7000 -77.2000 TD 30 -1 10 26
1971223N27280 1971 92 NA NA BETH 1971-08-12 03:00:00 TS 31.1150 -76.9423 main 316 293 P_____________ AL061971 31.1150 -76.9423 TD 30 -1 9 28
1971223N27280 1971 92 NA NA BETH 1971-08-12 06:00:00 TS 31.5000 -76.7000 30 hurdat_atl main 293 263 O_____________ hurdat_atl AL061971 31.5000 -76.7000 TD 30 -1 9 26
1971223N27280 1971 92 NA NA BETH 1971-08-12 09:00:00 TS 31.9300 -76.4850 main 263 238 P_____________ AL061971 31.9300 -76.4850 TD 30 -1 9 23
1971223N27280 1971 92 NA NA BETH 1971-08-12 12:00:00 TS 32.3000 -76.3000 30 hurdat_atl main 238 228 O_____________ hurdat_atl AL061971 32.3000 -76.3000 TD 30 -1 7 24
1971223N27280 1971 92 NA NA BETH 1971-08-12 15:00:00 TS 32.5223 -76.1719 main 228 221 P_____________ AL061971 32.5223 -76.1719 TD 30 -1 5 32
1971223N27280 1971 92 NA NA BETH 1971-08-12 18:00:00 TS 32.7000 -76.0000 30 hurdat_atl main 227 203 O_____________ hurdat_atl AL061971 32.7000 -76.0000 TD 30 -1 6 43
1971223N27280 1971 92 NA NA BETH 1971-08-12 21:00:00 TS 32.9727 -75.6730 main 203 195 P_____________ AL061971 32.9727 -75.6730 TD 30 -1 8 50
1971223N27280 1971 92 NA NA BETH 1971-08-13 00:00:00 TS 33.2000 -75.3000 30 hurdat_atl main 200 200 O_____________ hurdat_atl AL061971 33.2000 -75.3000 TD 30 -1 6 62
1971223N27280 1971 92 NA NA BETH 1971-08-13 03:00:00 TS 33.2724 -74.9920 main 208 208 P_____________ AL061971 33.2724 -74.9920 TD 30 -1 5 79
1971223N27280 1971 92 NA NA BETH 1971-08-13 06:00:00 TS 33.3000 -74.7000 30 1007 hurdat_atl main 227 227 O_____________ hurdat_atl AL061971 33.3000 -74.7000 TD 30 1007 -1 5 76
1971223N27280 1971 92 NA NA BETH 1971-08-13 09:00:00 TS 33.3924 -74.4000 main 241 241 P_____________ AL061971 33.3924 -74.4000 TD 30 -1 5 68
1971223N27280 1971 92 NA NA BETH 1971-08-13 12:00:00 TS 33.5000 -74.1000 30 hurdat_atl main 255 255 O_____________ hurdat_atl AL061971 33.5000 -74.1000 TD 30 -1 6 68
1971223N27280 1971 92 NA NA BETH 1971-08-13 15:00:00 TS 33.6000 -73.7850 main 271 271 P_____________ AL061971 33.6000 -73.7850 TD 30 -1 5 68
1971223N27280 1971 92 NA NA BETH 1971-08-13 18:00:00 TS 33.7000 -73.5000 30 hurdat_atl main 289 289 O_____________ hurdat_atl AL061971 33.7000 -73.5000 TD 30 -1 5 65
1971223N27280 1971 92 NA NA BETH 1971-08-13 21:00:00 TS 33.7924 -73.2849 main 296 296 P_____________ AL061971 33.7924 -73.2849 TD 30 -1 4 59
1971223N27280 1971 92 NA NA BETH 1971-08-14 00:00:00 TS 33.9000 -73.1000 30 1004 hurdat_atl main 303 303 O_____________ hurdat_atl AL061971 33.9000 -73.1000 TD 30 1004 -1 4 51
1971223N27280 1971 92 NA NA BETH 1971-08-14 03:00:00 TS 34.0500 -72.9000 main 310 302 P_____________ AL061971 34.0500 -72.9000 TD 30 1001 -1 4 48
1971223N27280 1971 92 NA NA BETH 1971-08-14 06:00:00 TS 34.2000 -72.7000 30 hurdat_atl main 310 310 I_____________ hurdat_atl AL061971 34.2000 -72.7000 TD 30 999 -1 3 59
1971223N27280 1971 92 NA NA BETH 1971-08-14 09:00:00 TS 34.2169 -72.5654 main 318 318 P_____________ AL061971 34.2169 -72.5654 TD 37 997 0 4 59
1971223N27280 1971 92 NA NA BETH 1971-08-14 12:00:00 TS 34.4000 -72.3000 45 995 hurdat_atl main 329 329 O_____________ hurdat_atl AL061971 34.4000 -72.3000 TS 45 995 0 11 42
1971223N27280 1971 92 NA NA BETH 1971-08-14 15:00:00 TS 35.0108 -71.7045 main 354 352 P_____________ AL061971 35.0108 -71.7045 TS 50 993 0 18 37
1971223N27280 1971 92 NA NA BETH 1971-08-14 18:00:00 TS 35.8000 -71.0000 55 hurdat_atl main 404 404 I_____________ hurdat_atl AL061971 35.8000 -71.0000 TS 55 992 0 18 34
1971223N27280 1971 92 NA NA BETH 1971-08-14 21:00:00 TS 36.5142 -70.4559 main 452 452 P_____________ AL061971 36.5142 -70.4559 TS 62 991 0 17 32
1971223N27280 1971 92 NA NA BETH 1971-08-15 00:00:00 TS 37.2000 -69.9000 70 990 hurdat_atl main 460 428 O_____________ hurdat_atl AL061971 37.2000 -69.9000 HU 70 990 1 16 37
1971223N27280 1971 92 NA NA BETH 1971-08-15 03:00:00 TS 37.8076 -69.2140 main 431 388 P_____________ AL061971 37.8076 -69.2140 HU 70 986 1 16 43
1971223N27280 1971 92 NA NA BETH 1971-08-15 06:00:00 TS 38.4000 -68.5000 70 982 hurdat_atl main 388 348 O_____________ hurdat_atl AL061971 38.4000 -68.5000 HU 70 982 1 16 41
1971223N27280 1971 92 NA NA BETH 1971-08-15 09:00:00 TS 39.0569 -67.8491 main 343 322 P_____________ AL061971 39.0569 -67.8491 HU 72 979 1 16 38
1971223N27280 1971 92 NA NA BETH 1971-08-15 12:00:00 TS 39.7000 -67.2000 75 977 hurdat_atl main 323 321 O_____________ hurdat_atl AL061971 39.7000 -67.2000 HU 75 977 1 16 41
1971223N27280 1971 92 NA NA BETH 1971-08-15 15:00:00 TS 40.2573 -66.4986 main 331 300 P_____________ AL061971 40.2573 -66.4986 HU 75 977 1 15 44
1971223N27280 1971 92 NA NA BETH 1971-08-15 18:00:00 TS 40.8000 -65.8000 75 hurdat_atl main 300 233 I_____________ hurdat_atl AL061971 40.8000 -65.8000 HU 75 977 1 15 42
1971223N27280 1971 92 NA NA BETH 1971-08-15 21:00:00 TS 41.3921 -65.1341 main 234 179 P_____________ AL061971 41.3921 -65.1341 HU 70 977 1 15 39
1971223N27280 1971 92 NA NA BETH 1971-08-16 00:00:00 TS 42.0000 -64.5000 65 978 hurdat_atl main 179 151 O_____________ hurdat_atl AL061971 42.0000 -64.5000 HU 65 978 1 16 37
1971223N27280 1971 92 NA NA BETH 1971-08-16 03:00:00 TS 42.6299 -63.8627 main 151 135 P_____________ AL061971 42.6299 -63.8627 HU 65 978 1 15 36
1971223N27280 1971 92 NA NA BETH 1971-08-16 06:00:00 TS 43.2000 -63.3000 65 979 hurdat_atl main 135 104 O_____________ hurdat_atl AL061971 43.2000 -63.3000 HU 65 979 1 12 37
1971223N27280 1971 92 NA NA BETH 1971-08-16 09:00:00 TS 43.5918 -62.8819 main 104 81 P_____________ AL061971 43.5918 -62.8819 HU 65 981 1 10 36
1971223N27280 1971 92 NA NA BETH 1971-08-16 12:00:00 TS 44.0000 -62.5000 65 984 hurdat_atl main 81 38 O_____________ hurdat_atl AL061971 44.0000 -62.5000 HU 65 984 1 12 31
1971223N27280 1971 92 NA NA BETH 1971-08-16 15:00:00 TS 44.6047 -62.0366 main 44 0 P_____________ AL061971 44.6047 -62.0366 HU 65 987 1 15 29
1971223N27280 1971 92 NA NA BETH 1971-08-16 18:00:00 TS 45.3000 -61.5000 65 hurdat_atl main 0 0 I_____________ hurdat_atl AL061971 45.3000 -61.5000 HU 65 991 1 16 31
1971223N27280 1971 92 NA NA BETH 1971-08-16 21:00:00 TS 45.9776 -60.8642 main 0 0 P_____________ AL061971 45.9776 -60.8642 HU 62 994 0 17 33
1971223N27280 1971 92 NA NA BETH 1971-08-17 00:00:00 ET 46.7000 -60.2000 60 998 hurdat_atl main 7 7 O_____________ hurdat_atl AL061971 46.7000 -60.2000 EX 60 998 -4 18 29
1971223N27280 1971 92 NA NA BETH 1971-08-17 03:00:00 ET 47.5144 -59.5991 main 25 0 P_____________ AL061971 47.5144 -59.5991 EX 55 998 -4 18 27
1971223N27280 1971 92 NA NA BETH 1971-08-17 06:00:00 ET 48.3000 -59.0000 50 998 hurdat_atl main 13 0 O_____________ hurdat_atl AL061971 48.3000 -59.0000 EX 50 998 -4 16 30
1971223N27280 1971 92 NA NA BETH 1971-08-17 09:00:00 ET 48.9459 -58.3648 main 0 0 P_____________ AL061971 48.9459 -58.3648 EX 47 998 -4 15 35
1971223N27280 1971 92 NA NA BETH 1971-08-17 12:00:00 ET 49.5000 -57.7000 45 998 hurdat_atl main 0 O_____________ hurdat_atl AL061971 49.5000 -57.7000 EX 45 998 -4 14 38

IBTrACS Databaseについて

本データベースは、米国NOAAが公開する1842年以降の世界の熱帯低気圧のベストトラックデータアーカイブInternational Best Track Archive for Climate Stewardship (IBTrACS)を、ウェブで閲覧しやすい形式に変換したものです。

最終更新日:2021-12-06